Time;durP1;ratioP1;P1;durP2;ratioP2;P2;SDS_P1;SDS_P2;PMS_P1;PMS_P2;Temp;Humidity;BMP_temperature;BMP_pressure;BME280_temperature;BME280_humidity;BME280_pressure;Samples;Min_cycle;Max_cycle;Signal;HPM_P1;HPM_P2
2020/12/27 00:00:11;;;;;;;2.25;0.68;;;1.10;96.60;;;;;;4138653;28;20133;-86
2020/12/27 00:02:13;;;;;;;0.75;0.73;;;1.10;96.80;;;;;;4177996;28;20071;-87
2020/12/27 00:04:14;;;;;;;2.05;1.55;;;1.10;96.90;;;;;;4131441;28;20412;-87
2020/12/27 00:06:16;;;;;;;1.30;1.20;;;1.10;96.80;;;;;;4146426;28;20058;-86
2020/12/27 00:08:17;;;;;;;2.15;0.95;;;1.10;96.80;;;;;;4145724;28;20050;-86
2020/12/27 00:10:18;;;;;;;0.75;0.75;;;1.10;96.80;;;;;;4148343;28;20058;-86
2020/12/27 00:12:20;;;;;;;3.05;2.33;;;1.10;97.20;;;;;;4149750;28;20066;-86
2020/12/27 00:14:21;;;;;;;1.35;1.20;;;1.10;96.90;;;;;;4147875;28;20617;-86
2020/12/27 00:16:26;;;;;;;1.23;1.13;;;1.10;96.70;;;;;;4156804;28;20057;-87
2020/12/27 00:18:27;;;;;;;0.47;0.47;;;1.10;96.80;;;;;;4151719;28;20065;-87
2020/12/27 00:20:28;;;;;;;0.82;0.80;;;1.10;97.00;;;;;;4147055;28;20058;-85
2020/12/27 00:22:30;;;;;;;4.00;0.95;;;1.00;97.00;;;;;;4157553;28;20049;-87
2020/12/27 00:24:32;;;;;;;1.77;1.60;;;1.00;96.80;;;;;;4144727;28;20074;-87
2020/12/27 00:26:33;;;;;;;2.08;1.70;;;1.00;96.80;;;;;;4160509;28;20045;-87
2020/12/27 00:28:34;;;;;;;0.98;0.98;;;1.00;96.70;;;;;;4158860;28;20086;-86
2020/12/27 00:30:36;;;;;;;2.10;1.88;;;1.00;96.90;;;;;;4128551;28;20054;-86
2020/12/27 00:32:37;;;;;;;0.57;0.38;;;0.90;97.00;;;;;;4147211;28;20139;-86
2020/12/27 00:34:38;;;;;;;2.33;0.88;;;0.90;97.10;;;;;;4126119;28;20673;-87
2020/12/27 00:36:40;;;;;;;0.85;0.85;;;0.80;97.40;;;;;;4145745;28;20045;-89
2020/12/27 00:38:41;;;;;;;1.30;1.20;;;0.90;97.00;;;;;;4127697;28;20134;-86
2020/12/27 00:40:43;;;;;;;1.90;1.80;;;0.80;97.00;;;;;;4127420;28;20511;-87
2020/12/27 00:42:44;;;;;;;1.40;1.00;;;0.90;96.90;;;;;;4159426;28;20132;-86
2020/12/27 00:44:46;;;;;;;1.70;1.60;;;0.80;97.20;;;;;;4130860;28;20065;-87
2020/12/27 00:46:49;;;;;;;1.73;1.13;;;0.80;97.10;;;;;;4154867;28;20464;-87
2020/12/27 00:48:51;;;;;;;1.65;1.27;;;0.70;97.50;;;;;;4146973;28;20075;-88
2020/12/27 00:50:52;;;;;;;2.10;2.00;;;0.70;97.80;;;;;;4130410;28;20062;-86
2020/12/27 00:52:54;;;;;;;1.17;1.13;;;0.70;98.00;;;;;;4144097;28;20056;-87
2020/12/27 00:54:55;;;;;;;1.95;1.63;;;0.60;97.80;;;;;;4128457;28;20076;-87
2020/12/27 00:56:57;;;;;;;1.80;1.70;;;0.60;97.80;;;;;;4130013;28;20396;-86
2020/12/27 00:58:58;;;;;;;3.03;1.88;;;0.60;97.90;;;;;;4130173;28;20141;-86
2020/12/27 01:00:59;;;;;;;0.68;0.68;;;0.60;98.10;;;;;;4130350;28;20061;-87
2020/12/27 01:03:00;;;;;;;0.90;0.90;;;0.60;97.90;;;;;;4146576;28;20461;-87
2020/12/27 01:05:02;;;;;;;0.70;0.70;;;0.60;97.50;;;;;;4157346;28;20049;-88
2020/12/27 01:07:03;;;;;;;1.73;1.35;;;0.60;97.60;;;;;;4145823;28;20045;-87
2020/12/27 01:09:04;;;;;;;2.17;0.98;;;0.60;97.60;;;;;;4142483;28;20054;-87
2020/12/27 01:11:06;;;;;;;1.90;1.33;;;0.60;97.50;;;;;;4149814;28;20054;-89
2020/12/27 01:13:07;;;;;;;2.13;1.95;;;0.60;97.40;;;;;;4164249;28;20148;-87
2020/12/27 01:15:09;;;;;;;0.82;0.73;;;0.60;97.70;;;;;;4129601;28;20054;-86
2020/12/27 01:17:10;;;;;;;1.65;1.55;;;0.60;97.90;;;;;;4151155;28;20138;-87
2020/12/27 01:19:11;;;;;;;4.50;1.98;;;0.50;97.90;;;;;;4149456;28;20100;-87
2020/12/27 01:21:25;;;;;;;1.52;1.02;;;0.50;97.90;;;;;;4133729;28;20050;-87
2020/12/27 01:23:27;;;;;;;2.00;1.75;;;0.50;97.80;;;;;;4138609;28;20854;-87
2020/12/27 01:25:28;;;;;;;2.60;1.65;;;0.50;98.00;;;;;;4136506;28;20422;-87
2020/12/27 01:27:29;;;;;;;1.45;1.00;;;0.50;98.10;;;;;;4128150;28;20054;-87
2020/12/27 01:29:30;;;;;;;0.82;0.82;;;0.50;97.80;;;;;;4136475;28;20050;-87
2020/12/27 01:31:32;;;;;;;2.42;1.58;;;0.40;98.40;;;;;;4147768;28;20056;-88
2020/12/27 01:33:33;;;;;;;1.60;1.50;;;0.40;98.40;;;;;;4142277;28;20059;-88
2020/12/27 01:35:34;;;;;;;0.95;0.95;;;0.40;98.60;;;;;;4162527;28;20049;-87
2020/12/27 01:37:36;;;;;;;1.35;1.30;;;0.40;98.60;;;;;;4161377;28;20070;-87
2020/12/27 01:39:37;;;;;;;4.38;1.75;;;0.40;98.60;;;;;;4134296;28;20052;-89
2020/12/27 01:41:38;;;;;;;1.63;1.52;;;0.40;98.60;;;;;;4142916;28;20145;-88
2020/12/27 01:43:39;;;;;;;0.88;0.77;;;0.40;98.40;;;;;;4143113;28;20058;-87
2020/12/27 01:45:41;;;;;;;0.93;0.88;;;0.40;98.50;;;;;;4156824;28;20057;-88
2020/12/27 01:47:42;;;;;;;3.60;2.08;;;0.40;98.40;;;;;;4153754;28;20445;-86
2020/12/27 01:49:43;;;;;;;1.90;1.73;;;0.40;98.40;;;;;;4132300;28;20050;-87
2020/12/27 01:51:45;;;;;;;0.90;0.82;;;0.40;98.80;;;;;;4130744;28;20129;-88
2020/12/27 01:53:47;;;;;;;1.55;1.48;;;0.40;98.70;;;;;;4134885;28;20062;-88
2020/12/27 01:55:48;;;;;;;0.60;0.60;;;0.30;98.60;;;;;;4135461;28;20391;-87
2020/12/27 01:57:59;;;;;;;2.00;1.85;;;0.30;99.00;;;;;;4133544;28;20053;-86
2020/12/27 02:00:00;;;;;;;8.73;3.10;;;0.30;99.10;;;;;;4164152;28;20063;-87
2020/12/27 02:02:01;;;;;;;0.50;0.50;;;0.20;99.30;;;;;;4137262;28;20049;-86
2020/12/27 02:04:03;;;;;;;1.42;1.05;;;0.20;99.20;;;;;;4129256;28;20047;-87
2020/12/27 02:06:04;;;;;;;3.13;1.73;;;0.10;99.10;;;;;;4138664;28;20054;-87
2020/12/27 02:08:05;;;;;;;1.95;1.85;;;0.20;99.20;;;;;;4126237;28;20057;-87
2020/12/27 02:10:07;;;;;;;1.08;0.98;;;0.10;99.60;;;;;;4138311;28;20133;-87
2020/12/27 02:12:09;;;;;;;5.53;1.75;;;0.10;99.40;;;;;;4143039;28;20065;-88
2020/12/27 02:14:11;;;;;;;0.90;0.90;;;0.10;99.40;;;;;;4145130;28;20402;-87
2020/12/27 02:16:16;;;;;;;0.52;0.52;;;0.00;99.60;;;;;;4152350;28;20131;-88
2020/12/27 02:18:17;;;;;;;0.95;0.93;;;0.00;99.70;;;;;;4134511;28;20133;-87
2020/12/27 02:20:19;;;;;;;4.53;1.95;;;0.00;99.70;;;;;;4152847;28;20140;-87
2020/12/27 02:22:20;;;;;;;0.65;0.57;;;0.00;99.80;;;;;;4147006;28;20092;-87
2020/12/27 02:24:23;;;;;;;0.77;0.77;;;-0.10;99.80;;;;;;4168265;28;20045;-87
2020/12/27 02:26:27;;;;;;;1.27;1.15;;;-0.10;99.60;;;;;;4178147;28;20057;-87
2020/12/27 02:28:29;;;;;;;1.00;0.73;;;0.00;99.80;;;;;;4176754;28;20053;-87
2020/12/27 02:30:30;;;;;;;1.02;1.02;;;0.00;99.50;;;;;;4147655;28;20293;-87
2020/12/27 02:32:31;;;;;;;3.28;1.75;;;0.00;99.40;;;;;;4141155;28;20058;-87
2020/12/27 02:34:33;;;;;;;1.98;1.00;;;-0.10;99.60;;;;;;4169723;28;20580;-88
2020/12/27 02:36:34;;;;;;;0.57;0.57;;;-0.10;99.90;;;;;;4164353;28;20052;-87
2020/12/27 02:38:35;;;;;;;6.80;2.83;;;-0.20;99.80;;;;;;4169969;28;20077;-87
2020/12/27 02:40:36;;;;;;;4.38;1.92;;;-0.10;99.50;;;;;;4177146;28;20041;-90
2020/12/27 02:42:38;;;;;;;2.10;2.00;;;-0.10;99.40;;;;;;4146305;28;20049;-88
2020/12/27 02:44:48;;;;;;;1.55;1.23;;;-0.10;99.50;;;;;;4149149;28;20137;-88
2020/12/27 02:46:49;;;;;;;4.43;2.33;;;-0.10;99.40;;;;;;4151516;28;20050;-88
2020/12/27 02:48:51;;;;;;;2.20;1.88;;;-0.10;99.60;;;;;;4173816;28;20056;-89
2020/12/27 02:50:52;;;;;;;1.55;1.45;;;-0.20;99.70;;;;;;4180227;28;20044;-88
2020/12/27 02:52:54;;;;;;;1.58;1.48;;;-0.10;99.40;;;;;;4148555;28;20054;-87
2020/12/27 02:54:55;;;;;;;1.33;0.98;;;-0.10;99.70;;;;;;4167318;28;20053;-87
2020/12/27 02:56:56;;;;;;;0.60;0.60;;;-0.20;99.90;;;;;;4179559;28;20041;-87
2020/12/27 02:59:02;;;;;;;1.45;1.40;;;-0.20;99.80;;;;;;4147560;28;20433;-87
2020/12/27 03:01:03;;;;;;;0.75;0.75;;;-0.20;99.80;;;;;;4149100;28;20042;-88
2020/12/27 03:03:04;;;;;;;2.58;1.98;;;-0.20;99.60;;;;;;4149221;28;20558;-87
2020/12/27 03:05:05;;;;;;;0.98;0.98;;;-0.20;99.40;;;;;;4147178;28;20054;-88
2020/12/27 03:07:07;;;;;;;1.15;1.15;;;-0.20;99.50;;;;;;4165753;28;20386;-87
2020/12/27 03:09:08;;;;;;;2.88;1.88;;;-0.20;99.60;;;;;;4195128;28;20393;-87
2020/12/27 03:11:09;;;;;;;1.17;1.08;;;-0.20;99.70;;;;;;4181354;28;20063;-88
2020/12/27 03:13:10;;;;;;;3.08;2.80;;;-0.20;99.30;;;;;;4182334;28;20052;-87
2020/12/27 03:15:12;;;;;;;1.08;1.02;;;-0.20;99.50;;;;;;4139705;28;20085;-88
2020/12/27 03:17:13;;;;;;;4.43;1.17;;;-0.20;99.70;;;;;;4196127;28;20049;-87
2020/12/27 03:19:14;;;;;;;2.63;1.67;;;-0.30;99.70;;;;;;4194508;28;20049;-88
2020/12/27 03:21:16;;;;;;;0.60;0.60;;;-0.30;99.60;;;;;;4157259;28;20062;-88
2020/12/27 03:23:17;;;;;;;1.73;1.63;;;-0.30;99.60;;;;;;4181951;28;20049;-88
2020/12/27 03:25:19;;;;;;;1.70;1.42;;;-0.30;99.50;;;;;;4173569;28;20053;-88
2020/12/27 03:27:20;;;;;;;2.60;2.40;;;-0.30;99.50;;;;;;4180818;28;20053;-88
2020/12/27 03:29:21;;;;;;;2.72;2.30;;;-0.30;99.80;;;;;;4165294;28;20041;-88
2020/12/27 03:31:22;;;;;;;2.13;1.20;;;-0.40;99.60;;;;;;4181518;28;20051;-88
2020/12/27 03:33:24;;;;;;;1.75;1.65;;;-0.30;99.90;;;;;;4147677;28;20054;-87
2020/12/27 03:35:25;;;;;;;0.80;0.80;;;-0.40;99.80;;;;;;4180578;28;20055;-88
2020/12/27 03:37:27;;;;;;;0.93;0.93;;;-0.40;99.90;;;;;;4148880;28;20053;-87
2020/12/27 03:39:28;;;;;;;4.20;1.20;;;-0.40;99.80;;;;;;4139676;28;20056;-88
2020/12/27 03:41:29;;;;;;;2.08;1.88;;;-0.40;99.80;;;;;;4152297;28;20057;-87
2020/12/27 03:43:31;;;;;;;1.73;1.60;;;-0.40;99.90;;;;;;4151265;28;20069;-88
2020/12/27 03:45:32;;;;;;;0.55;0.55;;;-0.40;99.90;;;;;;4164576;28;20624;-88
2020/12/27 03:47:33;;;;;;;1.88;0.52;;;-0.50;99.90;;;;;;4164754;28;20049;-89
2020/12/27 03:49:34;;;;;;;1.80;1.65;;;-0.50;99.90;;;;;;4147787;28;20050;-88
2020/12/27 03:51:36;;;;;;;1.05;1.02;;;-0.50;99.90;;;;;;4145022;28;20056;-88
2020/12/27 03:53:37;;;;;;;1.65;1.58;;;-0.60;99.90;;;;;;4148396;28;20403;-88
2020/12/27 03:55:39;;;;;;;1.92;1.83;;;-0.60;99.90;;;;;;4179681;28;20053;-88
2020/12/27 03:57:40;;;;;;;0.98;0.98;;;-0.60;99.90;;;;;;4166584;28;20063;-88
2020/12/27 03:59:41;;;;;;;0.47;0.47;;;-0.60;99.90;;;;;;4193777;28;20056;-87
2020/12/27 04:01:43;;;;;;;1.33;1.25;;;-0.60;99.90;;;;;;4159574;28;20049;-88
2020/12/27 04:03:45;;;;;;;1.38;1.27;;;-0.60;99.90;;;;;;4144225;28;20133;-88
2020/12/27 04:05:46;;;;;;;1.15;1.08;;;-0.60;99.90;;;;;;4194461;28;20114;-88
2020/12/27 04:07:48;;;;;;;1.13;1.13;;;-0.60;99.90;;;;;;4180132;28;20128;-87
2020/12/27 04:09:51;;;;;;;0.40;0.40;;;-0.60;99.90;;;;;;4147610;28;20366;-88
2020/12/27 04:11:52;;;;;;;0.55;0.55;;;-0.60;99.90;;;;;;4147973;28;20045;-88
2020/12/27 04:13:53;;;;;;;1.10;0.98;;;-0.60;99.90;;;;;;4145810;28;20072;-88
2020/12/27 04:15:55;;;;;;;2.13;1.70;;;-0.70;99.90;;;;;;4150041;28;20120;-87
2020/12/27 04:17:56;;;;;;;1.40;1.17;;;-0.70;99.90;;;;;;4147892;28;20058;-88
2020/12/27 04:19:57;;;;;;;1.67;1.50;;;-0.70;99.90;;;;;;4179847;28;20523;-87
2020/12/27 04:21:59;;;;;;;4.53;2.17;;;-0.70;99.90;;;;;;4148151;28;20068;-87
2020/12/27 04:24:00;;;;;;;4.13;2.65;;;-0.70;99.90;;;;;;4148227;28;20060;-87
2020/12/27 04:26:01;;;;;;;1.92;1.83;;;-0.70;99.90;;;;;;4157234;28;20049;-88
2020/12/27 04:28:03;;;;;;;1.70;1.60;;;-0.70;99.90;;;;;;4136140;28;20064;-88
2020/12/27 04:30:04;;;;;;;2.45;0.85;;;-0.70;99.90;;;;;;4115745;28;20054;-88
2020/12/27 04:32:05;;;;;;;0.75;0.75;;;-0.70;99.90;;;;;;4158989;28;20053;-88
2020/12/27 04:34:06;;;;;;;1.58;1.48;;;-0.70;99.90;;;;;;4138516;28;20093;-88
2020/12/27 04:36:08;;;;;;;2.28;2.08;;;-0.70;99.90;;;;;;4131163;28;20061;-88
2020/12/27 04:38:09;;;;;;;1.40;1.35;;;-0.70;99.90;;;;;;4130946;28;20062;-88
2020/12/27 04:40:10;;;;;;;1.30;1.25;;;-0.70;99.90;;;;;;4130847;28;20089;-88
2020/12/27 04:42:11;;;;;;;0.50;0.50;;;-0.70;99.80;;;;;;4146862;28;20140;-88
2020/12/27 04:44:13;;;;;;;0.95;0.95;;;-0.70;99.90;;;;;;4146338;28;20053;-87
2020/12/27 04:46:15;;;;;;;2.10;1.65;;;-0.70;99.90;;;;;;4131016;28;20598;-88
2020/12/27 04:48:16;;;;;;;1.70;1.65;;;-0.70;99.90;;;;;;4131122;28;20050;-87
2020/12/27 04:50:17;;;;;;;1.67;1.55;;;-0.70;99.90;;;;;;4145015;28;20056;-87
2020/12/27 04:52:23;;;;;;;3.28;2.22;;;-0.70;99.90;;;;;;4124464;28;20125;-88
2020/12/27 04:54:26;;;;;;;7.25;2.00;;;-0.80;99.90;;;;;;4133538;28;20054;-87
2020/12/27 04:56:27;;;;;;;0.65;0.65;;;-0.70;99.90;;;;;;4148571;28;20060;-88
2020/12/27 04:58:28;;;;;;;1.42;1.15;;;-0.80;99.90;;;;;;4151655;28;20049;-88
2020/12/27 05:00:30;;;;;;;0.85;0.85;;;-0.80;99.90;;;;;;4150871;28;20064;-88
2020/12/27 05:02:31;;;;;;;1.30;1.30;;;-0.80;99.90;;;;;;4147418;28;20501;-87
2020/12/27 05:04:32;;;;;;;1.20;1.20;;;-0.70;99.90;;;;;;4126695;28;20050;-88
2020/12/27 05:06:33;;;;;;;1.25;1.15;;;-0.70;99.90;;;;;;4151221;28;20082;-88
2020/12/27 05:08:35;;;;;;;2.47;1.33;;;-0.70;99.90;;;;;;4163369;28;20514;-88
2020/12/27 05:10:40;;;;;;;2.25;1.52;;;-0.70;99.90;;;;;;4143277;28;20057;-88
2020/12/27 05:12:41;;;;;;;;;;;-0.70;99.90;;;;;;4127634;28;20051;-89
2020/12/27 05:14:44;;;;;;;0.63;0.63;;;-0.80;99.90;;;;;;4177051;28;19921;-88
2020/12/27 05:16:51;;;;;;;1.45;0.90;;;-0.80;99.90;;;;;;4128068;28;20121;-88
2020/12/27 05:18:52;;;;;;;3.05;2.47;;;-0.80;99.90;;;;;;4146179;28;20076;-88
2020/12/27 05:20:53;;;;;;;2.08;1.08;;;-0.80;99.90;;;;;;4132769;28;20093;-88
2020/12/27 05:23:04;;;;;;;0.63;0.63;;;-0.80;99.90;;;;;;4163732;28;20042;-88
2020/12/27 05:25:05;;;;;;;1.92;1.83;;;-0.80;99.90;;;;;;4126189;28;20050;-88
2020/12/27 05:27:14;;;;;;;0.60;0.60;;;-0.80;99.90;;;;;;4118874;28;20495;-88
2020/12/27 05:29:32;;;;;;;0.57;0.52;;;-0.80;99.90;;;;;;4166400;28;20052;-88
2020/12/27 05:31:35;;;;;;;1.40;1.30;;;-0.80;99.90;;;;;;4149761;28;20072;-90
2020/12/27 05:33:41;;;;;;;0.82;0.70;;;-0.80;99.90;;;;;;4151793;28;20058;-89
2020/12/27 05:35:43;;;;;;;2.65;1.48;;;-0.80;99.90;;;;;;4150539;28;20050;-87
2020/12/27 05:37:45;;;;;;;2.83;1.42;;;-0.80;99.90;;;;;;4156107;28;20132;-88
2020/12/27 05:39:46;;;;;;;1.60;1.20;;;-0.80;99.90;;;;;;4163836;28;20200;-87
2020/12/27 05:41:48;;;;;;;0.63;0.63;;;-0.80;99.90;;;;;;4164141;28;20149;-88
2020/12/27 05:44:03;;;;;;;2.25;1.25;;;-0.80;99.90;;;;;;4131481;28;20128;-88
2020/12/27 05:46:07;;;;;;;1.38;1.20;;;-0.80;99.80;;;;;;4132744;28;20053;-87
2020/12/27 05:48:08;;;;;;;0.95;0.95;;;-0.80;99.90;;;;;;4151115;28;20129;-86
2020/12/27 05:50:13;;;;;;;1.63;1.60;;;-0.80;99.90;;;;;;4134185;28;20122;-87
2020/12/27 05:52:16;;;;;;;4.50;3.42;;;-0.80;99.90;;;;;;4159864;28;20078;-88
2020/12/27 05:54:35;;;;;;;0.63;0.50;;;-0.80;99.90;;;;;;4134689;28;20507;-90
2020/12/27 05:56:37;;;;;;;0.93;0.93;;;-0.80;99.90;;;;;;4162002;28;20092;-88
2020/12/27 05:58:39;;;;;;;2.33;1.25;;;-0.80;99.90;;;;;;4139094;28;20406;-89
2020/12/27 06:00:40;;;;;;;1.42;1.15;;;-0.80;99.80;;;;;;4140905;28;20050;-88
2020/12/27 06:02:42;;;;;;;0.80;0.60;;;-0.70;99.80;;;;;;4136479;28;20490;-87
2020/12/27 06:05:14;;;;;;;1.10;1.10;;;-0.80;99.90;;;;;;4163234;28;20124;-87
2020/12/27 06:07:32;;;;;;;2.17;1.10;;;-0.80;99.90;;;;;;4147438;28;20061;-87
2020/12/27 06:10:08;;;;;;;1.02;1.02;;;-0.80;99.80;;;;;;4132416;28;20056;-88
2020/12/27 06:12:12;;;;;;;1.00;1.00;;;-0.80;99.90;;;;;;4147927;28;20078;-88
2020/12/27 06:14:16;;;;;;;1.00;1.00;;;-0.80;99.90;;;;;;4132682;28;20065;-88
2020/12/27 06:16:23;;;;;;;0.93;0.93;;;-0.90;99.90;;;;;;4158126;28;20054;-88
2020/12/27 06:18:28;;;;;;;1.08;1.05;;;-0.90;99.90;;;;;;4164017;28;20062;-88
2020/12/27 06:20:32;;;;;;;;;;;-0.80;99.90;;;;;;4178180;28;20064;-88
2020/12/27 06:22:34;;;;;;;0.80;0.63;;;-0.90;99.90;;;;;;4187336;28;19920;-89
2020/12/27 06:24:36;;;;;;;2.15;1.00;;;-0.80;99.90;;;;;;4181598;28;20049;-89
2020/12/27 06:26:37;;;;;;;1.67;1.58;;;-0.80;99.90;;;;;;4162439;28;20395;-89
2020/12/27 06:28:38;;;;;;;2.42;0.90;;;-0.80;99.90;;;;;;4161830;28;20387;-89
2020/12/27 06:30:41;;;;;;;1.33;1.33;;;-0.90;99.90;;;;;;4170339;28;20132;-89
2020/12/27 06:32:46;;;;;;;3.58;1.60;;;-0.90;99.90;;;;;;4166352;28;20136;-89
2020/12/27 06:34:47;;;;;;;2.53;2.30;;;-0.90;99.90;;;;;;4146897;28;20054;-89
2020/12/27 06:36:51;;;;;;;1.67;1.50;;;-0.90;99.90;;;;;;4149347;28;20050;-89
2020/12/27 06:38:52;;;;;;;1.05;1.05;;;-0.90;99.90;;;;;;4145745;28;20137;-89
2020/12/27 06:41:15;;;;;;;1.88;1.33;;;-0.90;99.90;;;;;;4187028;28;20044;-89
2020/12/27 06:43:18;;;;;;;2.05;1.95;;;-0.90;99.90;;;;;;4158565;28;20483;-89
2020/12/27 06:45:29;;;;;;;1.65;1.55;;;-0.90;99.90;;;;;;4135111;28;20061;-91
2020/12/27 06:47:52;;;;;;;2.10;1.38;;;-1.00;99.90;;;;;;4171293;28;20076;-91
2020/12/27 06:50:13;;;;;;;1.00;1.00;;;-1.00;99.90;;;;;;4172392;28;20545;-89
2020/12/27 06:52:20;;;;;;;1.00;1.00;;;-1.00;99.90;;;;;;4142782;28;20050;-90
2020/12/27 06:54:42;;;;;;;2.15;1.95;;;-1.00;99.90;;;;;;4165006;28;20049;-89
2020/12/27 06:56:44;;;;;;;0.68;0.68;;;-1.00;99.90;;;;;;4178590;28;20049;-89
2020/12/27 06:59:01;;;;;;;0.80;0.80;;;-1.00;99.90;;;;;;4171985;28;20087;-88
2020/12/27 07:01:13;;;;;;;1.27;1.27;;;-1.00;99.90;;;;;;4171979;28;20064;-87
2020/12/27 07:03:19;;;;;;;2.75;1.90;;;-1.10;99.90;;;;;;4179749;28;20037;-86
2020/12/27 07:05:30;;;;;;;1.75;1.45;;;-1.10;99.90;;;;;;4180318;28;20055;-86
2020/12/27 07:07:45;;;;;;;0.75;0.75;;;-1.10;99.90;;;;;;4177782;28;20073;-89
2020/12/27 07:09:47;;;;;;;1.88;1.75;;;-1.10;99.90;;;;;;4164347;28;20477;-87
2020/12/27 07:12:05;;;;;;;1.65;1.60;;;-1.10;99.90;;;;;;4165002;28;20080;-87
2020/12/27 07:14:08;;;;;;;1.00;1.00;;;-1.10;99.90;;;;;;4185857;28;20112;-90
2020/12/27 07:16:10;;;;;;;1.15;1.08;;;-1.10;99.90;;;;;;4155864;28;20140;-87
2020/12/27 07:18:11;;;;;;;1.35;1.33;;;-1.10;99.90;;;;;;4148796;28;20071;-87
2020/12/27 07:20:15;;;;;;;2.72;2.10;;;-1.10;99.90;;;;;;4179378;28;20041;-91
2020/12/27 07:22:17;;;;;;;0.40;0.40;;;-1.10;99.90;;;;;;4179675;28;20124;-84
2020/12/27 07:24:19;;;;;;;1.20;1.10;;;-1.00;99.90;;;;;;4147348;28;20042;-87
2020/12/27 07:26:23;;;;;;;3.60;2.47;;;-1.00;99.90;;;;;;4148474;28;20050;-85
2020/12/27 07:28:24;;;;;;;2.28;1.05;;;-1.00;99.90;;;;;;4178632;28;20059;-86
2020/12/27 07:30:27;;;;;;;0.85;0.85;;;-1.00;99.90;;;;;;4147403;28;20053;-87
2020/12/27 07:32:28;;;;;;;4.47;1.75;;;-1.00;99.90;;;;;;4179967;28;20067;-89
2020/12/27 07:34:30;;;;;;;0.50;0.50;;;-1.00;99.90;;;;;;4188312;28;20045;-88
2020/12/27 07:36:35;;;;;;;0.73;0.73;;;-1.00;99.90;;;;;;4152201;28;20050;-89
2020/12/27 07:39:02;;;;;;;0.60;0.60;;;-1.00;99.90;;;;;;4166343;28;20053;-87
2020/12/27 07:41:03;;;;;;;1.00;1.00;;;-1.00;99.90;;;;;;4163162;28;20413;-87
2020/12/27 07:43:09;;;;;;;0.50;0.50;;;-1.00;99.90;;;;;;4186347;28;20048;-87
2020/12/27 07:45:12;;;;;;;1.52;1.50;;;-1.00;99.90;;;;;;4166125;28;20440;-88
2020/12/27 07:47:13;;;;;;;1.23;0.93;;;-1.00;99.90;;;;;;4190122;28;20120;-84
2020/12/27 07:49:15;;;;;;;1.92;1.25;;;-1.00;99.90;;;;;;4161931;28;20042;-86
2020/12/27 07:51:21;;;;;;;1.23;1.23;;;-1.00;99.90;;;;;;4198629;28;20104;-83
2020/12/27 07:53:22;;;;;;;0.80;0.80;;;-0.90;99.90;;;;;;4186726;28;20049;-88
2020/12/27 07:55:37;;;;;;;0.63;0.63;;;-1.00;99.90;;;;;;4173814;28;20053;-86
2020/12/27 07:57:38;;;;;;;0.30;0.30;;;-0.90;99.90;;;;;;4163617;28;20073;-84
2020/12/27 07:59:39;;;;;;;1.20;1.20;;;-1.00;99.90;;;;;;4163571;28;20061;-84
2020/12/27 08:01:41;;;;;;;0.63;0.63;;;-0.90;99.90;;;;;;4189416;28;20045;-85
2020/12/27 08:03:42;;;;;;;1.23;1.08;;;-0.90;99.90;;;;;;4159518;28;20128;-86
2020/12/27 08:05:44;;;;;;;1.05;1.05;;;-0.90;99.90;;;;;;4160554;28;20045;-86
2020/12/27 08:07:45;;;;;;;1.20;1.20;;;-0.90;99.90;;;;;;4185977;28;20144;-87
2020/12/27 08:09:47;;;;;;;8.15;2.38;;;-0.80;99.90;;;;;;4145677;28;20050;-90
2020/12/27 08:11:48;;;;;;;0.85;0.85;;;-0.80;99.90;;;;;;4161393;28;20057;-93
2020/12/27 08:14:00;;;;;;;1.20;1.15;;;-0.80;99.90;;;;;;4161460;28;20049;-84
2020/12/27 08:16:01;;;;;;;1.17;1.08;;;-0.80;99.90;;;;;;4194374;28;20050;-87
2020/12/27 08:18:04;;;;;;;0.65;0.65;;;-0.80;99.90;;;;;;4163545;28;20053;-89
2020/12/27 08:20:05;;;;;;;0.70;0.70;;;-0.80;99.90;;;;;;4162825;28;20065;-88
2020/12/27 08:22:06;;;;;;;1.55;1.45;;;-0.70;99.90;;;;;;4180684;28;20049;-90
2020/12/27 08:24:14;;;;;;;0.75;0.75;;;-0.70;99.90;;;;;;4155077;28;20045;-87
2020/12/27 08:26:15;;;;;;;1.95;1.52;;;-0.70;99.90;;;;;;4179796;28;20044;-84
2020/12/27 08:28:17;;;;;;;1.15;1.13;;;-0.70;99.90;;;;;;4177232;28;20053;-89
2020/12/27 08:30:18;;;;;;;1.25;1.23;;;-0.60;99.80;;;;;;4179384;28;20052;-83
2020/12/27 08:32:19;;;;;;;0.75;0.75;;;-0.60;99.80;;;;;;4191736;28;20253;-88
2020/12/27 08:34:22;;;;;;;2.30;2.20;;;-0.50;99.50;;;;;;4162338;28;20041;-88
2020/12/27 08:36:24;;;;;;;0.70;0.70;;;-0.60;99.40;;;;;;4169424;28;20188;-90
2020/12/27 08:38:35;;;;;;;0.82;0.82;;;-0.60;99.30;;;;;;4146895;28;20049;-87
2020/12/27 08:40:39;;;;;;;1.42;1.08;;;-0.50;99.30;;;;;;4184006;28;20512;-87
2020/12/27 08:42:44;;;;;;;2.05;1.25;;;-0.50;99.30;;;;;;4177454;28;20574;-88
2020/12/27 08:44:49;;;;;;;1.20;0.90;;;-0.50;99.20;;;;;;4158853;28;20060;-88
2020/12/27 08:46:51;;;;;;;0.90;0.90;;;-0.50;99.20;;;;;;4177043;28;20492;-89
2020/12/27 08:49:00;;;;;;;1.58;0.90;;;-0.50;99.00;;;;;;4177703;28;20041;-89
2020/12/27 08:51:20;;;;;;;2.78;2.28;;;-0.50;98.80;;;;;;4151880;28;20129;-87
2020/12/27 08:53:21;;;;;;;0.93;0.93;;;-0.50;98.80;;;;;;4186838;28;20106;-85
2020/12/27 08:55:25;;;;;;;1.27;1.15;;;-0.50;98.80;;;;;;4171524;28;20061;-85
2020/12/27 08:57:27;;;;;;;1.60;1.52;;;-0.40;98.60;;;;;;4186228;28;20041;-84
2020/12/27 08:59:28;;;;;;;0.88;0.88;;;-0.40;98.40;;;;;;4153560;28;20050;-87
2020/12/27 09:01:29;;;;;;;0.68;0.68;;;-0.40;98.20;;;;;;4145381;28;20083;-86
2020/12/27 09:03:31;;;;;;;1.15;1.15;;;-0.30;98.30;;;;;;4166550;28;20048;-85
2020/12/27 09:05:35;;;;;;;3.15;1.35;;;-0.40;98.30;;;;;;4162088;28;20049;-84
2020/12/27 09:07:41;;;;;;;1.55;1.50;;;-0.30;98.30;;;;;;4194808;28;20455;-84
2020/12/27 09:10:05;;;;;;;1.23;1.23;;;-0.30;98.50;;;;;;4178915;28;20096;-86
2020/12/27 09:12:09;;;;;;;2.15;2.03;;;-0.20;98.40;;;;;;4185827;28;20055;-87
2020/12/27 09:14:28;;;;;;;2.67;1.17;;;-0.20;98.30;;;;;;4182909;28;20052;-84
2020/12/27 09:16:33;;;;;;;1.67;1.58;;;-0.10;98.10;;;;;;4186090;28;20121;-87
2020/12/27 09:18:35;;;;;;;1.23;1.20;;;-0.10;98.00;;;;;;4152785;28;20060;-88
2020/12/27 09:20:37;;;;;;;1.15;1.15;;;-0.10;98.20;;;;;;4181652;28;20113;-85
2020/12/27 09:22:42;;;;;;;1.25;1.23;;;-0.10;98.00;;;;;;4144797;28;20141;-86
2020/12/27 09:24:44;;;;;;;0.73;0.63;;;-0.10;98.10;;;;;;4162841;28;20136;-84
2020/12/27 09:26:45;;;;;;;0.73;0.73;;;-0.10;97.90;;;;;;4160392;28;20050;-82
2020/12/27 09:28:47;;;;;;;1.08;1.00;;;-0.10;98.30;;;;;;4162997;28;20054;-86
2020/12/27 09:31:01;;;;;;;1.70;1.60;;;0.00;98.20;;;;;;4163495;28;20109;-86
2020/12/27 09:33:03;;;;;;;1.30;1.30;;;0.10;98.10;;;;;;4179337;28;20132;-86
2020/12/27 09:35:05;;;;;;;0.70;0.70;;;0.10;97.70;;;;;;4130115;28;20530;-86
2020/12/27 09:37:13;;;;;;;1.67;1.13;;;0.20;97.90;;;;;;4130825;28;20056;-85
2020/12/27 09:39:15;;;;;;;0.60;0.60;;;0.20;97.70;;;;;;4115628;28;20133;-85
2020/12/27 09:41:17;;;;;;;2.00;1.90;;;0.20;97.40;;;;;;4133586;28;20451;-86
2020/12/27 09:43:19;;;;;;;1.13;0.90;;;0.30;97.60;;;;;;4158872;28;20053;-85
2020/12/27 09:45:22;;;;;;;1.42;1.33;;;0.30;97.40;;;;;;4132581;28;20129;-87
2020/12/27 09:47:27;;;;;;;0.38;0.38;;;0.40;97.10;;;;;;4130660;28;20142;-85
2020/12/27 09:49:29;;;;;;;0.50;0.50;;;0.50;96.90;;;;;;4153417;28;20061;-85
2020/12/27 09:51:30;;;;;;;0.60;0.60;;;0.50;96.90;;;;;;4140938;28;20134;-86
2020/12/27 09:53:32;;;;;;;1.67;0.82;;;0.50;96.80;;;;;;4146252;28;20320;-86
2020/12/27 09:55:34;;;;;;;0.45;0.45;;;0.60;97.00;;;;;;4157092;28;20135;-86
2020/12/27 09:57:36;;;;;;;0.50;0.50;;;0.60;96.40;;;;;;4161355;28;20501;-86
2020/12/27 09:59:37;;;;;;;2.47;1.10;;;0.70;96.60;;;;;;4130913;28;20614;-85
2020/12/27 10:01:38;;;;;;;1.02;0.45;;;0.70;96.50;;;;;;4130157;28;20129;-85
2020/12/27 10:03:39;;;;;;;2.55;1.27;;;0.80;96.30;;;;;;4130122;28;20803;-86
2020/12/27 10:05:41;;;;;;;2.63;0.82;;;0.80;96.70;;;;;;4146832;28;20050;-86
2020/12/27 10:07:43;;;;;;;0.82;0.80;;;0.90;95.70;;;;;;4148946;28;20061;-86
2020/12/27 10:09:45;;;;;;;0.73;0.73;;;1.00;95.80;;;;;;4136201;28;20061;-86
2020/12/27 10:11:46;;;;;;;0.88;0.88;;;1.00;95.80;;;;;;4133865;28;20446;-85
2020/12/27 10:13:47;;;;;;;0.95;0.95;;;1.10;95.20;;;;;;4170863;28;20052;-85
2020/12/27 10:15:49;;;;;;;3.22;1.70;;;1.20;95.30;;;;;;4139107;28;20562;-85
2020/12/27 10:17:50;;;;;;;3.10;1.27;;;1.20;95.50;;;;;;4133405;28;20057;-86
2020/12/27 10:19:52;;;;;;;0.93;0.88;;;1.30;94.70;;;;;;4174257;28;20048;-85
2020/12/27 10:21:53;;;;;;;0.40;0.40;;;1.40;94.70;;;;;;4148844;28;20054;-85
2020/12/27 10:23:55;;;;;;;1.20;0.77;;;1.40;94.60;;;;;;4165945;28;20494;-85
2020/12/27 10:25:56;;;;;;;2.03;1.38;;;1.40;94.40;;;;;;4148851;28;20554;-85
2020/12/27 10:27:59;;;;;;;1.20;1.10;;;1.50;94.60;;;;;;4132768;28;20117;-85
2020/12/27 10:30:00;;;;;;;0.70;0.70;;;1.50;94.50;;;;;;4133616;28;20056;-86
2020/12/27 10:32:06;;;;;;;0.70;0.70;;;1.60;93.90;;;;;;4164503;28;20509;-85
2020/12/27 10:34:07;;;;;;;0.55;0.55;;;1.70;93.20;;;;;;4159762;28;20048;-86
2020/12/27 10:36:08;;;;;;;1.15;1.05;;;1.70;93.10;;;;;;4153829;28;20128;-86
2020/12/27 10:38:09;;;;;;;3.50;1.48;;;1.70;92.90;;;;;;4148313;28;20061;-86
2020/12/27 10:40:11;;;;;;;0.35;0.35;;;1.80;92.50;;;;;;4163346;28;20041;-84
2020/12/27 10:42:12;;;;;;;0.40;0.40;;;1.80;92.60;;;;;;4147254;28;20050;-84
2020/12/27 10:44:15;;;;;;;0.55;0.55;;;1.90;92.40;;;;;;4163689;28;20048;-84